createdAt,value
2022-11-23T00:01:10.917Z,482.74
2022-11-23T00:06:18.240Z,482.96
2022-11-23T00:11:25.330Z,482.79
2022-11-23T00:17:43.809Z,482.16
2022-11-23T00:22:51.031Z,482.70
2022-11-23T00:27:58.220Z,482.74
2022-11-23T00:33:05.422Z,483.25
2022-11-23T00:38:12.690Z,483.36
2022-11-23T00:43:19.838Z,483.78
2022-11-23T00:48:27.123Z,483.27
2022-11-23T00:53:34.388Z,482.98
2022-11-23T00:58:41.537Z,483.49
2022-11-23T01:03:48.751Z,483.33
2022-11-23T01:08:55.968Z,484.71
2022-11-23T01:14:03.158Z,484.65
2022-11-23T01:19:10.324Z,483.49
2022-11-23T01:24:17.588Z,482.40
2022-11-23T01:29:24.770Z,483.05
2022-11-23T01:34:31.986Z,483.28
2022-11-23T01:39:39.199Z,482.83
2022-11-23T01:44:46.372Z,482.85
2022-11-23T01:49:53.580Z,482.73
2022-11-23T01:55:05.451Z,483.14
2022-11-23T02:00:08.094Z,483.43
2022-11-23T02:05:15.285Z,482.30
2022-11-23T02:10:22.496Z,482.32
2022-11-23T02:15:29.713Z,481.87
2022-11-23T02:20:36.930Z,481.47
2022-11-23T02:25:44.172Z,481.73
2022-11-23T02:30:51.317Z,481.95
2022-11-23T02:35:58.531Z,482.37
2022-11-23T02:41:05.761Z,482.75
2022-11-23T02:46:12.969Z,482.67
2022-11-23T02:51:20.095Z,482.68
2022-11-23T02:56:27.273Z,482.71
2022-11-23T03:01:34.468Z,482.52
2022-11-23T03:06:41.734Z,483.47
2022-11-23T03:11:48.998Z,483.65
2022-11-23T03:16:56.210Z,483.61
2022-11-23T03:22:03.369Z,483.37
2022-11-23T03:27:10.596Z,483.38
2022-11-23T03:32:17.779Z,483.65
2022-11-23T03:37:24.997Z,483.57
2022-11-23T03:42:32.273Z,484.11
2022-11-23T03:47:39.421Z,483.71
2022-11-23T03:52:46.569Z,484.28
2022-11-23T03:57:53.830Z,484.33
2022-11-23T04:03:01.020Z,485.32
2022-11-23T04:08:08.229Z,485.03
2022-11-23T04:13:15.455Z,485.32
2022-11-23T04:18:22.701Z,484.81
2022-11-23T04:23:29.927Z,485.25
2022-11-23T04:28:37.202Z,485.71
2022-11-23T04:33:44.359Z,485.61
2022-11-23T04:38:51.850Z,485.44
2022-11-23T04:43:59.075Z,485.69
2022-11-23T04:49:06.278Z,485.79
2022-11-23T04:54:13.506Z,486.45
2022-11-23T04:59:20.698Z,486.84
2022-11-23T05:04:27.879Z,486.98
2022-11-23T05:09:35.389Z,487.51
2022-11-23T05:14:42.278Z,488.36
2022-11-23T05:19:49.484Z,488.05
2022-11-23T05:24:56.701Z,487.83
2022-11-23T05:30:03.929Z,488.80
2022-11-23T05:35:11.090Z,489.00
2022-11-23T05:40:18.307Z,489.03
2022-11-23T05:45:25.585Z,488.84
2022-11-23T05:50:32.873Z,488.90
2022-11-23T05:55:40.077Z,489.05
2022-11-23T06:00:47.799Z,489.55
2022-11-23T06:05:54.944Z,489.48
2022-11-23T06:11:02.114Z,488.97
2022-11-23T06:16:09.374Z,488.48
2022-11-23T06:21:16.673Z,488.30
2022-11-23T06:26:23.892Z,488.18
2022-11-23T06:31:31.108Z,487.60
2022-11-23T06:36:38.314Z,486.93
2022-11-23T06:41:45.491Z,486.08
2022-11-23T06:46:52.703Z,485.95
2022-11-23T06:51:59.911Z,485.35
2022-11-23T06:57:07.111Z,484.84
2022-11-23T07:02:14.365Z,484.24
2022-11-23T07:07:21.592Z,484.32
2022-11-23T07:12:28.725Z,483.81
2022-11-23T07:17:36.053Z,483.83
2022-11-23T07:22:43.190Z,482.82
2022-11-23T07:27:50.650Z,482.72
2022-11-23T07:32:57.864Z,482.73
2022-11-23T07:38:05.053Z,482.42
2022-11-23T07:43:12.319Z,482.51
2022-11-23T07:48:19.586Z,483.23
2022-11-23T07:53:26.774Z,483.27
2022-11-23T07:58:33.955Z,483.20
2022-11-23T08:03:41.346Z,483.61
2022-11-23T08:08:48.467Z,483.36
2022-11-23T08:13:55.698Z,483.93
2022-11-23T08:19:02.956Z,483.55
2022-11-23T08:24:10.103Z,483.02
2022-11-23T08:29:17.286Z,483.23
2022-11-23T08:34:24.535Z,483.43
2022-11-23T08:39:31.744Z,483.90
2022-11-23T08:44:39.118Z,482.90
2022-11-23T08:49:46.312Z,483.55
2022-11-23T08:54:53.546Z,484.36
2022-11-23T09:00:00.918Z,483.79
2022-11-23T09:05:08.179Z,483.98
2022-11-23T09:10:18.882Z,484.27
2022-11-23T09:15:22.588Z,484.53
2022-11-23T09:20:29.776Z,485.19
2022-11-23T09:25:36.957Z,485.88
2022-11-23T09:30:44.192Z,485.94
2022-11-23T09:35:51.425Z,485.52
2022-11-23T09:40:58.606Z,485.46
2022-11-23T09:46:05.775Z,485.49
2022-11-23T09:51:12.973Z,485.59
2022-11-23T09:56:20.193Z,485.52
2022-11-23T10:01:27.481Z,485.96
2022-11-23T10:06:34.649Z,486.20
2022-11-23T10:11:41.856Z,486.33
2022-11-23T10:16:49.057Z,486.06
2022-11-23T10:21:56.241Z,485.71
2022-11-23T10:27:03.411Z,485.68
2022-11-23T10:32:10.638Z,486.87
2022-11-23T10:37:17.894Z,487.02
2022-11-23T10:42:25.002Z,487.68
2022-11-23T10:47:32.143Z,488.12
2022-11-23T10:52:39.352Z,487.65
2022-11-23T10:57:46.532Z,487.90
2022-11-23T11:02:53.730Z,487.89
2022-11-23T11:08:00.969Z,488.11
2022-11-23T11:13:08.246Z,488.31
2022-11-23T11:18:15.520Z,488.79
2022-11-23T11:23:22.737Z,489.11
2022-11-23T11:28:29.939Z,489.84
2022-11-23T11:33:37.145Z,490.19
2022-11-23T11:39:01.417Z,489.66
2022-11-23T11:43:51.586Z,490.17
2022-11-23T11:48:58.804Z,490.69
2022-11-23T11:54:06.062Z,490.93
2022-11-23T11:59:13.283Z,492.22
2022-11-23T12:04:20.396Z,492.82
2022-11-23T12:09:27.604Z,493.23
2022-11-23T12:14:35.261Z,493.35
2022-11-23T12:19:42.172Z,493.97
2022-11-23T12:24:49.462Z,494.25
2022-11-23T12:29:56.677Z,494.80
2022-11-23T12:35:03.930Z,495.03
2022-11-23T12:40:11.198Z,495.45
2022-11-23T12:45:18.337Z,495.33
2022-11-23T12:50:25.603Z,495.62
2022-11-23T12:55:32.793Z,495.16
2022-11-23T13:00:40.075Z,495.07
2022-11-23T13:05:47.180Z,495.10
2022-11-23T13:10:54.418Z,495.34
2022-11-23T13:16:01.774Z,496.06
2022-11-23T13:21:08.776Z,495.59
2022-11-23T13:26:16.039Z,496.41
2022-11-23T13:31:23.277Z,496.73
2022-11-23T13:36:56.572Z,497.57
2022-11-23T13:41:37.675Z,497.35
2022-11-23T13:46:45.228Z,497.67
2022-11-23T13:51:52.454Z,497.53
2022-11-23T13:56:59.698Z,497.29
2022-11-23T14:02:07.021Z,497.11
2022-11-23T14:07:14.116Z,497.49
2022-11-23T14:12:21.302Z,497.93
2022-11-23T14:17:28.464Z,498.75
2022-11-23T14:22:35.664Z,498.76
2022-11-23T14:27:47.514Z,499.14
2022-11-23T14:32:50.049Z,499.39
2022-11-23T14:37:57.259Z,499.72
2022-11-23T14:43:04.553Z,499.05
2022-11-23T14:48:11.781Z,498.81
2022-11-23T14:53:19.034Z,499.04
2022-11-23T14:58:26.246Z,498.78
2022-11-23T15:03:49.867Z,499.11
2022-11-23T15:08:40.756Z,498.86
2022-11-23T15:13:48.066Z,499.90
2022-11-23T15:18:55.234Z,499.46
2022-11-23T15:24:02.501Z,499.46
2022-11-23T15:29:09.791Z,500.07
2022-11-23T15:34:16.942Z,499.96
2022-11-23T15:39:24.209Z,500.15
2022-11-23T15:44:31.504Z,500.63
2022-11-23T15:49:38.660Z,501.14
2022-11-23T15:54:46.163Z,500.87
2022-11-23T15:59:53.414Z,501.34
2022-11-23T16:05:00.866Z,500.76
2022-11-23T16:10:08.200Z,500.14
2022-11-23T16:15:15.423Z,499.24
2022-11-23T16:20:22.567Z,500.01
2022-11-23T16:25:29.840Z,499.82
2022-11-23T16:30:37.238Z,499.54
2022-11-23T16:35:44.608Z,500.32
2022-11-23T16:40:52.012Z,500.26
2022-11-23T16:45:59.335Z,500.66
2022-11-23T16:51:07.340Z,500.47
2022-11-23T16:56:14.529Z,499.92
2022-11-23T17:01:22.093Z,499.04
2022-11-23T17:06:29.680Z,497.15
2022-11-23T17:11:37.292Z,493.55
2022-11-23T17:16:45.049Z,491.02
2022-11-23T17:21:52.523Z,487.56
2022-11-23T17:27:00.094Z,482.17
2022-11-23T17:32:07.675Z,481.33
2022-11-23T17:37:15.166Z,477.57
2022-11-23T17:42:22.684Z,476.24
2022-11-23T17:47:30.461Z,475.15
2022-11-23T17:52:38.918Z,472.32
2022-11-23T17:57:46.434Z,470.24
2022-11-23T18:02:53.934Z,471.08
2022-11-23T18:08:01.175Z,466.16
2022-11-23T18:13:08.668Z,465.81
2022-11-23T18:18:17.434Z,465.89
2022-11-23T18:23:25.021Z,465.04
2022-11-23T18:28:32.631Z,464.10
2022-11-23T18:33:40.381Z,465.08
2022-11-23T18:38:47.964Z,463.57
2022-11-23T18:43:55.581Z,462.61
2022-11-23T18:49:03.327Z,461.96
2022-11-23T18:54:10.931Z,461.18
2022-11-23T18:59:35.389Z,458.71
2022-11-23T19:04:25.862Z,456.97
2022-11-23T19:09:33.912Z,457.11
2022-11-23T19:14:41.579Z,455.19
2022-11-23T19:19:49.428Z,452.66
2022-11-23T19:24:57.017Z,450.75
2022-11-23T19:30:04.356Z,450.66
2022-11-23T19:35:11.852Z,450.03
2022-11-23T19:40:19.545Z,446.99
2022-11-23T19:45:27.061Z,449.22
2022-11-23T19:50:34.630Z,449.48
2022-11-23T19:55:42.185Z,445.41
2022-11-23T20:00:49.898Z,443.96
2022-11-23T20:05:57.660Z,442.45
2022-11-23T20:11:05.228Z,439.71
2022-11-23T20:16:13.922Z,438.20
2022-11-23T20:21:21.511Z,440.80
2022-11-23T20:26:29.096Z,437.73
2022-11-23T20:31:37.930Z,432.61
2022-11-23T20:36:45.257Z,435.57
2022-11-23T20:41:52.763Z,432.51
2022-11-23T20:47:02.284Z,431.57
2022-11-23T20:52:07.887Z,431.65
2022-11-23T20:57:15.517Z,431.30
2022-11-23T21:02:23.060Z,431.42
2022-11-23T21:07:30.325Z,429.21
2022-11-23T21:12:37.730Z,430.45
2022-11-23T21:17:45.243Z,431.49
2022-11-23T21:22:52.524Z,430.92
2022-11-23T21:27:59.649Z,430.67
2022-11-23T21:33:06.894Z,429.37
2022-11-23T21:38:14.086Z,430.68
2022-11-23T21:43:21.264Z,429.58
2022-11-23T21:48:28.569Z,430.47
2022-11-23T21:53:35.819Z,430.49
2022-11-23T21:58:43.010Z,429.97
2022-11-23T22:03:50.230Z,429.82
2022-11-23T22:08:57.441Z,430.47
2022-11-23T22:14:04.679Z,428.95
2022-11-23T22:19:11.910Z,425.66
2022-11-23T22:24:19.203Z,426.01
2022-11-23T22:29:26.456Z,424.74
2022-11-23T22:34:33.847Z,424.23
2022-11-23T22:39:40.885Z,424.14
2022-11-23T22:44:48.175Z,424.36
2022-11-23T22:49:55.459Z,422.88
2022-11-23T22:55:02.682Z,421.74
2022-11-23T23:00:09.865Z,422.01
2022-11-23T23:05:17.098Z,421.14
2022-11-23T23:10:24.317Z,420.32
2022-11-23T23:15:31.546Z,421.68
2022-11-23T23:20:38.815Z,420.84
2022-11-23T23:25:46.065Z,421.13
2022-11-23T23:30:53.328Z,421.67
2022-11-23T23:36:00.604Z,420.63
2022-11-23T23:41:07.851Z,421.10
2022-11-23T23:46:15.111Z,420.57
2022-11-23T23:51:22.329Z,420.37
2022-11-23T23:56:29.529Z,419.95
